Time;durP1;ratioP1;P1;durP2;ratioP2;P2;SDS_P1;SDS_P2;PMS_P1;PMS_P2;Temp;Humidity;BMP_temperature;BMP_pressure;BME280_temperature;BME280_humidity;BME280_pressure;Samples;Min_cycle;Max_cycle;Signal;HPM_P1;HPM_P2
2023/08/07 00:02:10;;;;;;;2.00;1.90;;;;;;;;;;5084106;28;20059;-96
2023/08/07 00:04:35;;;;;;;2.47;2.28;;;;;;;;;;5075239;28;20119;-96
2023/08/07 00:07:00;;;;;;;2.00;1.90;;;;;;;;;;5068572;28;20500;-96
2023/08/07 00:09:25;;;;;;;3.50;2.13;;;;;;;;;;5076745;28;20367;-93
2023/08/07 00:11:51;;;;;;;2.37;2.27;;;;;;;;;;5046391;28;20267;-93
2023/08/07 00:14:16;;;;;;;2.43;2.33;;;;;;;;;;5046809;28;20266;-96
2023/08/07 00:16:41;;;;;;;2.17;2.07;;;;;;;;;;5047052;28;20281;-96
2023/08/07 00:19:06;;;;;;;2.42;2.05;;;;;;;;;;5058286;28;20255;-96
2023/08/07 00:21:32;;;;;;;2.33;2.23;;;;;;;;;;5052077;28;20021;-95
2023/08/07 00:23:57;;;;;;;2.23;2.13;;;;;;;;;;5055101;28;20364;-95
2023/08/07 00:26:22;;;;;;;2.27;2.17;;;;;;;;;;5065267;28;20375;-96
2023/08/07 00:28:48;;;;;;;2.57;2.30;;;;;;;;;;5075148;28;20013;-96
2023/08/07 00:31:13;;;;;;;2.80;2.60;;;;;;;;;;5064234;28;20330;-95
2023/08/07 00:33:38;;;;;;;2.45;2.35;;;;;;;;;;5076375;28;20532;-91
2023/08/07 00:36:04;;;;;;;3.53;2.70;;;;;;;;;;5078667;28;20096;-95
2023/08/07 00:38:29;;;;;;;2.63;2.53;;;;;;;;;;5059137;28;20275;-96
2023/08/07 00:40:54;;;;;;;2.40;2.30;;;;;;;;;;5076520;28;20037;-96
2023/08/07 00:43:19;;;;;;;3.00;2.80;;;;;;;;;;5075662;28;20323;-96
2023/08/07 00:45:46;;;;;;;2.53;2.42;;;;;;;;;;5075147;28;20490;-96
2023/08/07 00:48:12;;;;;;;2.88;2.67;;;;;;;;;;5057168;28;20132;-91
2023/08/07 00:50:37;;;;;;;3.88;3.08;;;;;;;;;;5058971;28;20040;-96
2023/08/07 00:53:03;;;;;;;3.05;2.85;;;;;;;;;;5065089;28;20359;-93
2023/08/07 00:55:28;;;;;;;2.60;2.47;;;;;;;;;;5038886;28;20079;-95
2023/08/07 00:57:54;;;;;;;2.97;2.75;;;;;;;;;;5040931;28;20765;-95
2023/08/07 01:00:20;;;;;;;2.73;2.57;;;;;;;;;;5074568;28;20451;-91
2023/08/07 01:02:47;;;;;;;2.75;2.55;;;;;;;;;;5065002;28;20764;-96
2023/08/07 01:05:12;;;;;;;4.72;2.63;;;;;;;;;;5069815;28;20076;-96
2023/08/07 01:07:37;;;;;;;2.83;2.60;;;;;;;;;;5067633;28;20021;-95
2023/08/07 01:10:03;;;;;;;2.88;2.67;;;;;;;;;;5053119;28;20017;-90
2023/08/07 01:12:43;;;;;;;2.80;2.60;;;;;;;;;;5052122;28;20024;-94
2023/08/07 01:15:08;;;;;;;3.38;2.85;;;;;;;;;;5053049;28;20021;-94
2023/08/07 01:17:34;;;;;;;2.85;2.65;;;;;;;;;;5049289;28;20036;-96
2023/08/07 01:20:00;;;;;;;2.78;2.55;;;;;;;;;;5055211;28;20431;-95
2023/08/07 01:22:25;;;;;;;3.13;2.90;;;;;;;;;;5057339;28;20017;-96
2023/08/07 01:24:50;;;;;;;2.73;2.63;;;;;;;;;;5062660;28;20033;-96
2023/08/07 01:27:19;;;;;;;3.13;2.92;;;;;;;;;;5066224;28;20311;-96
2023/08/07 01:29:50;;;;;;;2.78;2.42;;;;;;;;;;5072017;28;20029;-96
2023/08/07 01:32:19;;;;;;;3.17;2.88;;;;;;;;;;5065890;28;20025;-96
2023/08/07 01:34:45;;;;;;;4.07;2.72;;;;;;;;;;5067537;28;20067;-96
2023/08/07 01:37:12;;;;;;;2.80;2.60;;;;;;;;;;5059071;28;20055;-96
2023/08/07 01:39:37;;;;;;;3.03;2.78;;;;;;;;;;5053512;28;20496;-96
2023/08/07 01:42:04;;;;;;;3.15;2.95;;;;;;;;;;5065597;28;20513;-93
2023/08/07 01:44:30;;;;;;;3.15;2.95;;;;;;;;;;5052530;28;20913;-94
2023/08/07 01:46:55;;;;;;;4.50;2.63;;;;;;;;;;5048893;28;20017;-93
2023/08/07 01:49:20;;;;;;;4.57;2.90;;;;;;;;;;5061507;28;20013;-95
2023/08/07 01:51:45;;;;;;;3.30;3.10;;;;;;;;;;5061218;28;20831;-96
2023/08/07 01:54:11;;;;;;;2.70;2.60;;;;;;;;;;5068803;28;20311;-96
2023/08/07 01:56:36;;;;;;;3.37;3.07;;;;;;;;;;5072662;28;20305;-96
2023/08/07 01:59:01;;;;;;;3.00;2.80;;;;;;;;;;5057490;28;20264;-92
2023/08/07 02:01:27;;;;;;;3.47;3.20;;;;;;;;;;5055670;28;20287;-95
2023/08/07 02:03:52;;;;;;;3.33;3.00;;;;;;;;;;5069455;28;20032;-95
2023/08/07 02:06:17;;;;;;;2.90;2.70;;;;;;;;;;5079941;28;20290;-95
2023/08/07 02:08:42;;;;;;;3.20;3.00;;;;;;;;;;5073983;28;20274;-96
2023/08/07 02:11:07;;;;;;;3.40;3.20;;;;;;;;;;5061662;28;20753;-94
2023/08/07 02:13:33;;;;;;;4.47;3.93;;;;;;;;;;5063010;28;20263;-91
2023/08/07 02:15:58;;;;;;;3.72;3.42;;;;;;;;;;5045571;28;20271;-93
2023/08/07 02:18:23;;;;;;;4.87;4.40;;;;;;;;;;5052262;28;20039;-94
2023/08/07 02:20:48;;;;;;;4.20;3.90;;;;;;;;;;5036517;28;20269;-96
2023/08/07 02:23:14;;;;;;;4.00;3.80;;;;;;;;;;5062904;28;20328;-95
2023/08/07 02:25:39;;;;;;;5.28;4.88;;;;;;;;;;5049108;28;20029;-94
2023/08/07 02:28:04;;;;;;;8.70;7.50;;;;;;;;;;5048654;28;20373;-95
2023/08/07 02:30:30;;;;;;;5.50;5.00;;;;;;;;;;5054769;28;20266;-94
2023/08/07 02:32:55;;;;;;;4.15;3.85;;;;;;;;;;5048966;28;20060;-96
2023/08/07 02:35:21;;;;;;;4.70;4.30;;;;;;;;;;5048936;28;20398;-90
2023/08/07 02:37:46;;;;;;;8.43;7.60;;;;;;;;;;5039809;28;20260;-92
2023/08/07 02:40:15;;;;;;;10.30;9.23;;;;;;;;;;5041551;28;20462;-93
2023/08/07 02:42:40;;;;;;;8.23;7.53;;;;;;;;;;5044842;28;20151;-93
2023/08/07 02:45:05;;;;;;;6.32;5.93;;;;;;;;;;5047867;28;20079;-94
2023/08/07 02:47:31;;;;;;;5.53;5.18;;;;;;;;;;5051815;28;20487;-94
2023/08/07 02:49:56;;;;;;;5.38;5.07;;;;;;;;;;5047582;28;20024;-89
2023/08/07 02:52:21;;;;;;;6.75;6.25;;;;;;;;;;5043400;28;20504;-87
2023/08/07 02:54:46;;;;;;;6.40;5.95;;;;;;;;;;5047177;28;20494;-94
2023/08/07 02:57:12;;;;;;;11.07;10.07;;;;;;;;;;5062166;28;20359;-92
2023/08/07 02:59:37;;;;;;;8.68;7.97;;;;;;;;;;5046102;28;20278;-85
2023/08/07 03:02:02;;;;;;;7.40;6.83;;;;;;;;;;5044695;28;20027;-96
2023/08/07 03:04:28;;;;;;;10.18;9.30;;;;;;;;;;5045694;28;20382;-90
2023/08/07 03:06:53;;;;;;;11.20;10.23;;;;;;;;;;5044658;28;20063;-95
2023/08/07 03:09:18;;;;;;;13.50;11.52;;;;;;;;;;5043793;28;20325;-94
2023/08/07 03:11:43;;;;;;;8.95;8.35;;;;;;;;;;5049338;28;20020;-93
2023/08/07 03:14:09;;;;;;;7.83;7.20;;;;;;;;;;5044804;28;20031;-88
2023/08/07 03:16:34;;;;;;;7.03;6.32;;;;;;;;;;5046999;28;20799;-92
2023/08/07 03:18:59;;;;;;;7.20;6.30;;;;;;;;;;5045262;28;20044;-93
2023/08/07 03:21:24;;;;;;;6.33;5.83;;;;;;;;;;5044622;28;20342;-89
2023/08/07 03:23:50;;;;;;;6.30;5.78;;;;;;;;;;5042994;28;20267;-91
2023/08/07 03:26:15;;;;;;;7.00;6.40;;;;;;;;;;5042962;28;20024;-87
2023/08/07 03:28:41;;;;;;;7.43;6.67;;;;;;;;;;5044389;28;20543;-90
2023/08/07 03:31:06;;;;;;;6.40;6.00;;;;;;;;;;5041764;28;20294;-89
2023/08/07 03:33:31;;;;;;;6.30;5.80;;;;;;;;;;5044074;28;20325;-88
2023/08/07 03:35:56;;;;;;;6.15;5.70;;;;;;;;;;5040963;28;20271;-89
2023/08/07 03:38:22;;;;;;;6.70;6.20;;;;;;;;;;5043797;28;20061;-86
2023/08/07 03:40:47;;;;;;;6.95;6.45;;;;;;;;;;5040765;28;20271;-91
2023/08/07 03:43:12;;;;;;;7.15;6.55;;;;;;;;;;5042264;28;20434;-88
2023/08/07 03:45:38;;;;;;;7.00;6.60;;;;;;;;;;5042213;28;20059;-86
2023/08/07 03:48:03;;;;;;;16.75;7.80;;;;;;;;;;5042707;28;20096;-84
2023/08/07 03:50:30;;;;;;;7.80;6.20;;;;;;;;;;5043724;28;20025;-91
2023/08/07 03:52:55;;;;;;;6.97;6.43;;;;;;;;;;5041695;28;20765;-86
2023/08/07 03:55:21;;;;;;;6.88;6.43;;;;;;;;;;5042547;28;20082;-88
2023/08/07 03:57:46;;;;;;;6.70;6.20;;;;;;;;;;5041655;28;20013;-88
2023/08/07 04:00:12;;;;;;;5.55;5.25;;;;;;;;;;5042355;28;20032;-86
2023/08/07 04:02:37;;;;;;;6.78;6.10;;;;;;;;;;5041465;28;20427;-86
2023/08/07 04:05:02;;;;;;;6.67;6.27;;;;;;;;;;5050180;28;20555;-86
2023/08/07 04:07:29;;;;;;;5.88;5.55;;;;;;;;;;5046345;28;20792;-90
2023/08/07 04:09:54;;;;;;;6.63;5.90;;;;;;;;;;5040850;28;20028;-86
2023/08/07 04:12:19;;;;;;;5.77;5.47;;;;;;;;;;5042058;28;20307;-89
2023/08/07 04:14:45;;;;;;;5.57;5.27;;;;;;;;;;5039438;28;20275;-86
2023/08/07 04:17:11;;;;;;;5.83;5.53;;;;;;;;;;5040998;28;20271;-86
2023/08/07 04:19:36;;;;;;;6.00;5.60;;;;;;;;;;5039404;28;20716;-90
2023/08/07 04:22:01;;;;;;;6.10;5.70;;;;;;;;;;5042036;28;20049;-82
2023/08/07 04:24:28;;;;;;;5.60;5.20;;;;;;;;;;5041755;28;20644;-85
2023/08/07 04:26:53;;;;;;;6.10;5.60;;;;;;;;;;5041420;28;20259;-85
2023/08/07 04:29:18;;;;;;;4.87;4.47;;;;;;;;;;5042155;28;20043;-83
2023/08/07 04:31:44;;;;;;;5.03;4.65;;;;;;;;;;5039288;28;20247;-80
2023/08/07 04:34:09;;;;;;;4.45;4.10;;;;;;;;;;5041750;28;20036;-79
2023/08/07 04:36:34;;;;;;;4.00;3.70;;;;;;;;;;5040018;28;20021;-84
2023/08/07 04:38:59;;;;;;;3.30;3.10;;;;;;;;;;5025356;28;20038;-81
2023/08/07 04:41:25;;;;;;;3.00;2.80;;;;;;;;;;5039687;28;20772;-82
2023/08/07 04:43:50;;;;;;;3.37;3.17;;;;;;;;;;5040952;28;20283;-83
2023/08/07 04:46:15;;;;;;;3.17;2.97;;;;;;;;;;5040757;28;20049;-81
2023/08/07 04:48:40;;;;;;;2.50;2.40;;;;;;;;;;5039670;28;20112;-82
2023/08/07 04:51:06;;;;;;;2.90;2.67;;;;;;;;;;5039516;28;20025;-83
2023/08/07 04:53:31;;;;;;;2.27;2.17;;;;;;;;;;5039321;28;20287;-82
2023/08/07 04:55:56;;;;;;;2.77;2.17;;;;;;;;;;5041085;28;20381;-84
2023/08/07 04:58:22;;;;;;;2.50;2.30;;;;;;;;;;5047135;28;20032;-84
2023/08/07 05:00:47;;;;;;;2.17;2.07;;;;;;;;;;5047370;28;20016;-83
2023/08/07 05:03:12;;;;;;;1.97;1.87;;;;;;;;;;5039497;28;20294;-85
2023/08/07 05:05:37;;;;;;;2.38;2.10;;;;;;;;;;5040554;28;20033;-83
2023/08/07 05:08:03;;;;;;;1.70;1.60;;;;;;;;;;5041737;28;20021;-86
2023/08/07 05:10:28;;;;;;;1.67;1.58;;;;;;;;;;5043946;28;20546;-87
2023/08/07 05:12:56;;;;;;;1.70;1.60;;;;;;;;;;5045303;28;20514;-82
2023/08/07 05:15:25;;;;;;;5.90;1.65;;;;;;;;;;5042271;28;20017;-80
2023/08/07 05:17:51;;;;;;;1.50;1.40;;;;;;;;;;5043675;28;20029;-83
2023/08/07 05:20:16;;;;;;;1.23;1.23;;;;;;;;;;5042795;28;20079;-84
2023/08/07 05:22:41;;;;;;;4.23;1.70;;;;;;;;;;5045175;28;20092;-86
2023/08/07 05:25:09;;;;;;;1.88;1.27;;;;;;;;;;5043379;28;20025;-90
2023/08/07 05:27:34;;;;;;;1.52;1.42;;;;;;;;;;5043180;28;20064;-85
2023/08/07 05:30:00;;;;;;;1.33;1.20;;;;;;;;;;5043964;28;20076;-81
2023/08/07 05:32:25;;;;;;;3.33;1.40;;;;;;;;;;5044425;28;20025;-82
2023/08/07 05:34:50;;;;;;;2.03;1.20;;;;;;;;;;5044506;28;20730;-88
2023/08/07 05:37:17;;;;;;;1.58;1.48;;;;;;;;;;5042838;28;20014;-85
2023/08/07 05:39:42;;;;;;;3.03;1.33;;;;;;;;;;5045135;28;20020;-82
2023/08/07 05:42:09;;;;;;;2.15;1.20;;;;;;;;;;5042381;28;20132;-87
2023/08/07 05:44:34;;;;;;;1.20;1.00;;;;;;;;;;5043728;28;20108;-86
2023/08/07 05:46:59;;;;;;;1.43;0.90;;;;;;;;;;5044906;28;20559;-84
2023/08/07 05:49:25;;;;;;;1.70;1.40;;;;;;;;;;5044087;28;20079;-84
2023/08/07 05:51:50;;;;;;;1.55;0.80;;;;;;;;;;5044762;28;20083;-90
2023/08/07 05:54:16;;;;;;;0.80;0.80;;;;;;;;;;5032026;28;20071;-83
2023/08/07 05:56:41;;;;;;;0.88;0.88;;;;;;;;;;5032772;28;20104;-86
2023/08/07 05:59:06;;;;;;;1.27;1.23;;;;;;;;;;5035810;28;20514;-87
2023/08/07 06:01:32;;;;;;;1.20;1.17;;;;;;;;;;5045005;28;20024;-85
2023/08/07 06:03:57;;;;;;;0.90;0.90;;;;;;;;;;5036101;28;20628;-84
2023/08/07 06:06:23;;;;;;;2.88;1.10;;;;;;;;;;5033137;28;20040;-82
2023/08/07 06:08:48;;;;;;;1.07;1.07;;;;;;;;;;5043438;28;20013;-81
2023/08/07 06:11:13;;;;;;;1.85;0.90;;;;;;;;;;5038282;28;20805;-86
2023/08/07 06:13:40;;;;;;;1.20;1.10;;;;;;;;;;5043511;28;20025;-86
2023/08/07 06:16:06;;;;;;;1.02;1.00;;;;;;;;;;5042273;28;20033;-82
2023/08/07 06:18:31;;;;;;;2.30;1.10;;;;;;;;;;5042706;28;20481;-80
2023/08/07 06:20:56;;;;;;;1.45;1.30;;;;;;;;;;5042578;28;20108;-83
2023/08/07 06:23:21;;;;;;;1.27;1.00;;;;;;;;;;5042948;28;20031;-88
2023/08/07 06:25:47;;;;;;;2.20;1.30;;;;;;;;;;5042978;28;20033;-82
2023/08/07 06:28:12;;;;;;;1.53;1.33;;;;;;;;;;5043005;28;20075;-83
2023/08/07 06:30:38;;;;;;;1.67;1.42;;;;;;;;;;5041583;28;20032;-87
2023/08/07 06:33:03;;;;;;;3.05;1.77;;;;;;;;;;5036976;28;20555;-82
2023/08/07 06:35:28;;;;;;;1.40;1.30;;;;;;;;;;5034232;28;20029;-82
2023/08/07 06:37:53;;;;;;;3.13;1.60;;;;;;;;;;5039935;28;20021;-85
2023/08/07 06:40:19;;;;;;;1.50;1.10;;;;;;;;;;5043637;28;20032;-82
2023/08/07 06:42:44;;;;;;;2.17;1.00;;;;;;;;;;5043012;28;20107;-83
2023/08/07 06:45:09;;;;;;;1.30;1.10;;;;;;;;;;5035090;28;20032;-81
2023/08/07 06:47:35;;;;;;;1.27;1.17;;;;;;;;;;5042047;28;20017;-84
2023/08/07 06:50:00;;;;;;;2.20;1.27;;;;;;;;;;5044832;28;20028;-86
2023/08/07 06:52:25;;;;;;;1.92;1.30;;;;;;;;;;5042700;28;20266;-86
2023/08/07 06:54:50;;;;;;;1.33;1.20;;;;;;;;;;5041090;28;20029;-80
2023/08/07 06:57:16;;;;;;;2.23;1.50;;;;;;;;;;5041765;28;20271;-83
2023/08/07 06:59:41;;;;;;;1.23;1.10;;;;;;;;;;5041232;28;20009;-83
2023/08/07 07:02:06;;;;;;;0.70;0.70;;;;;;;;;;5043696;28;20465;-85
2023/08/07 07:04:32;;;;;;;0.70;0.67;;;;;;;;;;5041697;28;20031;-86
2023/08/07 07:06:58;;;;;;;0.40;0.40;;;;;;;;;;5041116;28;20028;-86
2023/08/07 07:09:23;;;;;;;2.30;0.60;;;;;;;;;;5042634;28;20021;-82
2023/08/07 07:11:48;;;;;;;0.80;0.80;;;;;;;;;;5041894;28;20055;-82
2023/08/07 07:14:14;;;;;;;0.80;0.70;;;;;;;;;;5031374;28;20021;-88
2023/08/07 07:16:39;;;;;;;1.07;0.87;;;;;;;;;;5040051;28;20321;-81
2023/08/07 07:19:08;;;;;;;2.40;1.10;;;;;;;;;;5043543;28;20333;-86
2023/08/07 07:21:33;;;;;;;3.08;0.80;;;;;;;;;;5038526;28;20259;-85
2023/08/07 07:23:58;;;;;;;1.47;0.70;;;;;;;;;;5035803;28;20095;-80
2023/08/07 07:26:23;;;;;;;3.03;1.50;;;;;;;;;;5040046;28;20024;-83
2023/08/07 07:28:51;;;;;;;2.27;0.60;;;;;;;;;;5041971;28;20365;-87
2023/08/07 07:31:16;;;;;;;1.00;0.70;;;;;;;;;;5041813;28;20021;-81
2023/08/07 07:33:41;;;;;;;0.80;0.80;;;;;;;;;;5040771;28;20025;-84
2023/08/07 07:36:06;;;;;;;0.60;0.60;;;;;;;;;;5042311;28;20545;-85
2023/08/07 07:38:32;;;;;;;2.80;0.80;;;;;;;;;;5041200;28;20333;-82
2023/08/07 07:40:57;;;;;;;11.27;1.23;;;;;;;;;;5042166;28;20745;-83
2023/08/07 07:43:23;;;;;;;1.05;0.60;;;;;;;;;;5046385;28;20091;-91
2023/08/07 07:45:48;;;;;;;1.27;0.70;;;;;;;;;;5041742;28;20039;-83
2023/08/07 07:48:14;;;;;;;1.17;0.75;;;;;;;;;;5040106;28;20472;-79
2023/08/07 07:50:39;;;;;;;0.83;0.50;;;;;;;;;;5039722;28;20036;-87
2023/08/07 07:53:04;;;;;;;0.80;0.80;;;;;;;;;;5041779;28;20466;-80
2023/08/07 07:55:29;;;;;;;1.20;0.60;;;;;;;;;;5037822;28;20059;-85
2023/08/07 07:57:55;;;;;;;1.00;0.55;;;;;;;;;;5039834;28;20107;-84
2023/08/07 08:00:22;;;;;;;2.38;0.60;;;;;;;;;;5040847;28;20091;-84
2023/08/07 08:02:47;;;;;;;1.75;0.80;;;;;;;;;;5041209;28;20035;-79
2023/08/07 08:05:13;;;;;;;1.53;0.43;;;;;;;;;;5026289;28;20033;-83
2023/08/07 08:07:39;;;;;;;1.90;0.50;;;;;;;;;;5036405;28;20052;-86
2023/08/07 08:10:05;;;;;;;0.57;0.30;;;;;;;;;;5041088;28;20039;-81
2023/08/07 08:12:31;;;;;;;1.30;0.60;;;;;;;;;;5039805;28;20102;-80
2023/08/07 08:14:56;;;;;;;1.10;0.50;;;;;;;;;;5041148;28;20616;-83
2023/08/07 08:17:22;;;;;;;1.03;0.40;;;;;;;;;;5040212;28;20264;-83
2023/08/07 08:19:47;;;;;;;1.15;0.40;;;;;;;;;;5041805;28;20021;-91
2023/08/07 08:22:13;;;;;;;0.70;0.40;;;;;;;;;;5041254;28;20024;-85
2023/08/07 08:24:38;;;;;;;0.70;0.50;;;;;;;;;;5041517;28;20847;-84
2023/08/07 08:27:03;;;;;;;0.60;0.40;;;;;;;;;;5044405;28;20298;-89
2023/08/07 08:29:29;;;;;;;0.70;0.40;;;;;;;;;;5041953;28;20776;-82
2023/08/07 08:31:55;;;;;;;1.23;0.50;;;;;;;;;;5040854;28;20098;-83
2023/08/07 08:34:21;;;;;;;1.58;0.60;;;;;;;;;;5039959;28;20021;-80
2023/08/07 08:36:46;;;;;;;1.75;0.65;;;;;;;;;;5041051;28;20032;-87
2023/08/07 08:39:11;;;;;;;1.03;0.43;;;;;;;;;;5039909;28;20623;-86
2023/08/07 08:41:37;;;;;;;2.67;0.73;;;;;;;;;;5039191;28;20387;-91
2023/08/07 08:44:04;;;;;;;0.40;0.35;;;;;;;;;;5037220;28;20076;-88
2023/08/07 08:46:30;;;;;;;1.00;0.32;;;;;;;;;;5046591;28;20429;-88
2023/08/07 08:48:57;;;;;;;0.60;0.30;;;;;;;;;;5047279;28;20084;-85
2023/08/07 08:51:23;;;;;;;1.58;0.43;;;;;;;;;;5046800;28;20073;-88
2023/08/07 08:53:50;;;;;;;0.55;0.55;;;;;;;;;;5046540;28;20032;-85
2023/08/07 08:56:16;;;;;;;0.50;0.40;;;;;;;;;;5046770;28;20112;-86
2023/08/07 08:58:42;;;;;;;0.52;0.40;;;;;;;;;;5046737;28;20104;-86
2023/08/07 09:01:08;;;;;;;1.95;0.73;;;;;;;;;;5040633;28;20097;-84
2023/08/07 09:03:33;;;;;;;0.47;0.45;;;;;;;;;;5045625;28;20116;-83
2023/08/07 09:05:59;;;;;;;1.05;0.55;;;;;;;;;;5044569;28;20202;-87
2023/08/07 09:08:29;;;;;;;0.40;0.40;;;;;;;;;;5046676;28;20025;-85
2023/08/07 09:10:55;;;;;;;0.50;0.32;;;;;;;;;;5044411;28;20079;-90
2023/08/07 09:13:22;;;;;;;0.32;0.30;;;;;;;;;;5045115;28;20087;-88
2023/08/07 09:15:50;;;;;;;0.30;0.30;;;;;;;;;;5045288;28;20100;-83
2023/08/07 09:18:16;;;;;;;0.30;0.30;;;;;;;;;;5044629;28;20038;-84
2023/08/07 09:20:42;;;;;;;1.08;0.43;;;;;;;;;;5044045;28;20017;-85
2023/08/07 09:23:07;;;;;;;0.40;0.40;;;;;;;;;;5043938;28;20032;-88
2023/08/07 09:25:33;;;;;;;1.50;0.50;;;;;;;;;;5046105;28;20644;-89
2023/08/07 09:28:04;;;;;;;0.50;0.50;;;;;;;;;;5041074;28;20276;-86
2023/08/07 09:30:29;;;;;;;0.47;0.47;;;;;;;;;;5041661;28;20026;-88
2023/08/07 09:32:58;;;;;;;0.60;0.60;;;;;;;;;;5045723;28;20108;-82
2023/08/07 09:35:23;;;;;;;;;;;;;;;;;;5038993;28;20025;-86
2023/08/07 09:37:49;;;;;;;1.27;0.50;;;;;;;;;;5039779;28;19912;-85
2023/08/07 09:40:15;;;;;;;0.57;0.57;;;;;;;;;;5044119;28;20043;-81
2023/08/07 09:42:41;;;;;;;0.60;0.60;;;;;;;;;;5050009;28;20503;-89
2023/08/07 09:45:22;;;;;;;1.25;0.50;;;;;;;;;;5046711;28;20044;-89
2023/08/07 09:48:01;;;;;;;0.60;0.60;;;;;;;;;;5041281;28;20427;-88
2023/08/07 09:50:26;;;;;;;0.60;0.60;;;;;;;;;;5041081;28;20040;-89
2023/08/07 09:52:52;;;;;;;1.95;0.70;;;;;;;;;;5038247;28;20033;-89
2023/08/07 09:55:18;;;;;;;0.73;0.73;;;;;;;;;;5043099;28;20417;-88
2023/08/07 09:57:44;;;;;;;2.22;1.00;;;;;;;;;;5042722;28;20482;-83
2023/08/07 10:00:14;;;;;;;1.38;0.77;;;;;;;;;;5043784;28;20021;-89
2023/08/07 10:02:39;;;;;;;2.15;0.90;;;;;;;;;;5041200;28;20033;-87
2023/08/07 10:05:05;;;;;;;0.83;0.77;;;;;;;;;;5029237;28;20036;-84
2023/08/07 10:07:31;;;;;;;1.08;0.98;;;;;;;;;;5037854;28;20075;-85
2023/08/07 10:09:58;;;;;;;0.82;0.80;;;;;;;;;;5041791;28;20443;-90
2023/08/07 10:12:23;;;;;;;1.38;0.80;;;;;;;;;;5039855;28;20040;-85
2023/08/07 10:14:50;;;;;;;1.00;0.90;;;;;;;;;;5041879;28;20024;-86
2023/08/07 10:17:16;;;;;;;3.85;0.88;;;;;;;;;;5044016;28;20490;-92
2023/08/07 10:19:41;;;;;;;0.75;0.73;;;;;;;;;;5044920;28;20410;-86
2023/08/07 10:22:07;;;;;;;5.47;0.77;;;;;;;;;;5036659;28;20033;-87
2023/08/07 10:24:34;;;;;;;1.00;0.93;;;;;;;;;;5035832;28;20294;-85
2023/08/07 10:26:59;;;;;;;0.80;0.80;;;;;;;;;;5044819;28;20056;-87
2023/08/07 10:29:25;;;;;;;2.25;0.90;;;;;;;;;;5045918;28;20463;-89
2023/08/07 10:31:52;;;;;;;0.77;0.77;;;;;;;;;;5055257;28;20017;-85
2023/08/07 10:34:17;;;;;;;1.17;0.88;;;;;;;;;;5043701;28;20021;-83
2023/08/07 10:36:42;;;;;;;1.03;0.80;;;;;;;;;;5043472;28;20025;-87
2023/08/07 10:39:11;;;;;;;0.70;0.70;;;;;;;;;;5044327;28;20268;-80
2023/08/07 10:41:41;;;;;;;0.95;0.95;;;;;;;;;;5043194;28;20041;-88
2023/08/07 10:44:16;;;;;;;1.20;1.17;;;;;;;;;;5047658;28;20120;-82
2023/08/07 10:46:54;;;;;;;1.20;1.20;;;;;;;;;;5055742;28;20021;-81
2023/08/07 10:49:32;;;;;;;1.27;1.20;;;;;;;;;;5033862;28;20107;-84
2023/08/07 10:51:58;;;;;;;1.80;1.00;;;;;;;;;;5039360;28;20037;-82
2023/08/07 10:54:23;;;;;;;1.17;1.08;;;;;;;;;;5043228;28;20070;-87
2023/08/07 10:56:52;;;;;;;1.40;1.30;;;;;;;;;;5043661;28;20013;-84
2023/08/07 10:59:17;;;;;;;;;;;;;;;;;;5043046;28;20096;-86
2023/08/07 11:01:43;;;;;;;1.77;1.00;;;;;;;;;;5042052;28;20070;-84
2023/08/07 11:04:09;;;;;;;1.55;1.20;;;;;;;;;;5041858;28;20021;-87
2023/08/07 11:06:35;;;;;;;2.15;0.98;;;;;;;;;;5042911;28;20067;-85
2023/08/07 11:09:03;;;;;;;1.08;1.00;;;;;;;;;;5048518;28;20021;-86
2023/08/07 11:11:28;;;;;;;1.67;1.38;;;;;;;;;;5043533;28;20102;-86
2023/08/07 11:13:54;;;;;;;1.65;1.00;;;;;;;;;;5046453;28;20529;-85
2023/08/07 11:16:22;;;;;;;1.30;1.20;;;;;;;;;;5044190;28;20032;-88
2023/08/07 11:18:48;;;;;;;3.50;1.38;;;;;;;;;;5043972;28;20024;-88
2023/08/07 11:21:13;;;;;;;1.20;1.10;;;;;;;;;;5044449;28;20973;-86
2023/08/07 11:23:39;;;;;;;1.03;0.90;;;;;;;;;;5044114;28;20020;-84
2023/08/07 11:26:05;;;;;;;1.42;1.30;;;;;;;;;;5034345;28;20037;-90
2023/08/07 11:28:30;;;;;;;3.55;1.58;;;;;;;;;;5043317;28;20017;-87
2023/08/07 11:30:56;;;;;;;0.95;0.95;;;;;;;;;;5047742;28;20021;-86
2023/08/07 11:33:22;;;;;;;1.63;1.20;;;;;;;;;;5040080;28;20112;-92
2023/08/07 11:35:47;;;;;;;0.88;0.88;;;;;;;;;;5032076;28;20204;-84
2023/08/07 11:38:13;;;;;;;1.42;1.10;;;;;;;;;;5035664;28;20392;-84
2023/08/07 11:40:38;;;;;;;1.35;1.00;;;;;;;;;;5022860;28;20701;-85
2023/08/07 11:43:03;;;;;;;0.90;0.90;;;;;;;;;;5040827;28;20052;-86
2023/08/07 11:45:29;;;;;;;1.53;0.90;;;;;;;;;;5044342;28;20043;-86
2023/08/07 11:47:56;;;;;;;1.05;1.00;;;;;;;;;;5043432;28;20518;-87
2023/08/07 11:50:22;;;;;;;1.00;0.90;;;;;;;;;;5042972;28;20518;-90
2023/08/07 11:52:48;;;;;;;1.50;0.85;;;;;;;;;;5044451;28;20025;-83
2023/08/07 11:55:14;;;;;;;2.13;1.17;;;;;;;;;;5056560;28;20074;-92
2023/08/07 11:57:40;;;;;;;2.53;1.00;;;;;;;;;;5045924;28;20056;-93
2023/08/07 12:00:13;;;;;;;1.20;1.10;;;;;;;;;;5044132;28;20056;-84
2023/08/07 12:02:41;;;;;;;1.65;1.10;;;;;;;;;;5041847;28;20453;-87
2023/08/07 12:05:07;;;;;;;1.40;1.30;;;;;;;;;;5032797;28;20103;-85
2023/08/07 12:07:33;;;;;;;1.15;1.05;;;;;;;;;;5030637;28;20139;-89
2023/08/07 12:09:58;;;;;;;2.07;1.10;;;;;;;;;;5024838;28;20030;-90
2023/08/07 12:12:23;;;;;;;1.20;1.10;;;;;;;;;;5022390;28;20300;-89
2023/08/07 12:14:52;;;;;;;1.48;1.30;;;;;;;;;;5042365;28;20846;-89
2023/08/07 12:17:17;;;;;;;3.88;1.35;;;;;;;;;;5031342;28;20025;-80
2023/08/07 12:19:45;;;;;;;2.27;1.40;;;;;;;;;;5039130;28;20538;-88
2023/08/07 12:22:11;;;;;;;2.75;1.15;;;;;;;;;;5030545;28;20276;-88
2023/08/07 12:24:39;;;;;;;1.42;1.10;;;;;;;;;;5032944;28;20352;-90
2023/08/07 12:27:05;;;;;;;1.85;1.17;;;;;;;;;;5023881;28;20083;-83
2023/08/07 12:29:30;;;;;;;2.40;1.10;;;;;;;;;;5024950;28;20025;-90
2023/08/07 12:31:59;;;;;;;1.65;1.00;;;;;;;;;;5042198;28;20111;-88
2023/08/07 12:34:24;;;;;;;1.13;0.98;;;;;;;;;;5042119;28;20013;-81
2023/08/07 12:36:49;;;;;;;2.17;1.00;;;;;;;;;;5042276;28;20093;-89
2023/08/07 12:39:15;;;;;;;1.38;1.08;;;;;;;;;;5042835;28;20043;-83
2023/08/07 12:41:40;;;;;;;1.30;1.20;;;;;;;;;;5041550;28;20720;-83
2023/08/07 12:44:05;;;;;;;1.17;1.07;;;;;;;;;;5042341;28;20025;-88
2023/08/07 12:46:30;;;;;;;2.30;1.00;;;;;;;;;;5039144;28;20020;-87
2023/08/07 12:48:56;;;;;;;1.43;0.90;;;;;;;;;;5043092;28;20271;-86
2023/08/07 12:51:21;;;;;;;2.83;1.27;;;;;;;;;;5041868;28;20643;-80
2023/08/07 12:53:47;;;;;;;1.93;1.10;;;;;;;;;;5041963;28;20035;-83
2023/08/07 12:56:12;;;;;;;1.73;0.95;;;;;;;;;;5040086;28;20033;-86
2023/08/07 12:58:37;;;;;;;1.00;1.00;;;;;;;;;;5041785;28;20036;-87
2023/08/07 13:01:04;;;;;;;1.83;0.90;;;;;;;;;;5043560;28;20021;-89
2023/08/07 13:03:29;;;;;;;1.20;1.08;;;;;;;;;;5040774;28;20280;-86
2023/08/07 13:05:54;;;;;;;3.60;1.08;;;;;;;;;;5042527;28;20486;-87
2023/08/07 13:08:20;;;;;;;2.10;0.90;;;;;;;;;;5040492;28;20036;-84
2023/08/07 13:10:45;;;;;;;0.98;0.88;;;;;;;;;;5042837;28;20020;-78
2023/08/07 13:13:10;;;;;;;1.10;1.00;;;;;;;;;;5040362;28;20028;-88
2023/08/07 13:15:35;;;;;;;1.93;1.23;;;;;;;;;;5042396;28;20256;-85
2023/08/07 13:18:01;;;;;;;1.53;1.00;;;;;;;;;;5055918;28;20179;-81
2023/08/07 13:20:27;;;;;;;3.08;1.20;;;;;;;;;;5041472;28;20079;-81
2023/08/07 13:22:52;;;;;;;1.33;1.30;;;;;;;;;;5041415;28;20036;-82
2023/08/07 13:25:17;;;;;;;1.00;0.90;;;;;;;;;;5039555;28;20036;-82
2023/08/07 13:27:43;;;;;;;1.73;1.10;;;;;;;;;;5041577;28;20021;-84
2023/08/07 13:30:08;;;;;;;0.90;0.90;;;;;;;;;;5042927;28;20397;-86
2023/08/07 13:32:34;;;;;;;1.83;1.08;;;;;;;;;;5045525;28;20016;-87
2023/08/07 13:34:59;;;;;;;1.20;1.10;;;;;;;;;;5043571;28;20028;-85
2023/08/07 13:37:24;;;;;;;1.30;1.20;;;;;;;;;;5046118;28;20029;-83
2023/08/07 13:39:52;;;;;;;1.10;1.00;;;;;;;;;;5045691;28;20025;-90
2023/08/07 13:42:17;;;;;;;1.10;1.00;;;;;;;;;;5029631;28;20492;-89
2023/08/07 13:44:42;;;;;;;1.63;1.10;;;;;;;;;;5037472;28;20055;-86
2023/08/07 13:47:09;;;;;;;1.10;1.00;;;;;;;;;;5027385;28;20029;-81
2023/08/07 13:49:35;;;;;;;3.38;1.10;;;;;;;;;;5030044;28;20299;-79
2023/08/07 13:52:00;;;;;;;2.58;1.17;;;;;;;;;;5028209;28;20024;-85
2023/08/07 13:54:25;;;;;;;1.40;1.20;;;;;;;;;;5036881;28;20056;-80
2023/08/07 13:56:50;;;;;;;2.80;1.23;;;;;;;;;;5027927;28;20032;-89
2023/08/07 13:59:16;;;;;;;1.53;1.30;;;;;;;;;;5022623;28;20025;-85
2023/08/07 14:01:41;;;;;;;1.45;1.00;;;;;;;;;;5035734;28;20369;-85
2023/08/07 14:04:07;;;;;;;2.33;1.30;;;;;;;;;;5028160;28;20119;-81
2023/08/07 14:06:32;;;;;;;1.73;1.40;;;;;;;;;;5026295;28;20025;-84
2023/08/07 14:08:58;;;;;;;1.70;1.30;;;;;;;;;;5027974;28;20981;-82
2023/08/07 14:11:27;;;;;;;2.00;1.42;;;;;;;;;;5031780;28;20017;-86
2023/08/07 14:13:53;;;;;;;1.98;1.40;;;;;;;;;;5042115;28;20021;-84
2023/08/07 14:16:18;;;;;;;2.53;1.00;;;;;;;;;;5039337;28;20024;-86
2023/08/07 14:18:43;;;;;;;4.13;1.20;;;;;;;;;;5025381;28;20534;-89
2023/08/07 14:21:08;;;;;;;2.63;1.20;;;;;;;;;;5046025;28;20327;-88
2023/08/07 14:23:34;;;;;;;1.90;1.30;;;;;;;;;;5045771;28;20259;-95
2023/08/07 14:25:59;;;;;;;3.73;1.10;;;;;;;;;;5042243;28;20861;-88
2023/08/07 14:28:25;;;;;;;1.93;1.27;;;;;;;;;;5043682;28;20100;-86
2023/08/07 14:30:51;;;;;;;1.30;1.20;;;;;;;;;;5044150;28;20024;-90
2023/08/07 14:33:17;;;;;;;1.38;1.27;;;;;;;;;;5044013;28;20496;-85
2023/08/07 14:35:42;;;;;;;1.40;1.30;;;;;;;;;;5034582;28;20032;-84